Time;durP1;ratioP1;P1;durP2;ratioP2;P2;SDS_P1;SDS_P2;PMS_P1;PMS_P2;Temp;Humidity;BMP_temperature;BMP_pressure;BME280_temperature;BME280_humidity;BME280_pressure;Samples;Min_cycle;Max_cycle;Signal;HPM_P1;HPM_P2
2021/05/13 00:01:20;;;;;;;4.15;2.20;;;;;;;17.82;45.55;98728.25;5057499;28;20074;-74
2021/05/13 00:03:47;;;;;;;3.55;2.40;;;;;;;17.59;45.53;98705.19;5057367;28;20017;-77
2021/05/13 00:06:12;;;;;;;3.78;2.20;;;;;;;17.52;45.19;98696.53;5057380;28;20032;-76
2021/05/13 00:08:38;;;;;;;3.92;2.15;;;;;;;17.70;45.38;98719.53;5057315;28;20468;-76
2021/05/13 00:11:05;;;;;;;4.32;2.08;;;;;;;17.84;45.31;98736.06;5057071;28;20211;-77
2021/05/13 00:13:38;;;;;;;2.40;2.20;;;;;;;17.90;45.19;98733.22;5057389;28;20062;-78
2021/05/13 00:16:06;;;;;;;3.58;2.20;;;;;;;17.86;44.98;98726.75;5057080;28;20048;-77
2021/05/13 00:18:31;;;;;;;2.58;1.85;;;;;;;17.78;45.17;98727.94;5057187;28;20449;-78
2021/05/13 00:20:58;;;;;;;3.15;2.40;;;;;;;17.60;45.30;98708.66;5057075;28;20060;-77
2021/05/13 00:23:23;;;;;;;3.53;1.83;;;;;;;17.29;45.27;98670.81;5057093;28;20162;-76
2021/05/13 00:25:51;;;;;;;2.30;1.85;;;;;;;17.47;45.33;98688.44;5056698;28;20060;-77
2021/05/13 00:28:18;;;;;;;2.42;1.90;;;;;;;17.48;45.38;98725.56;5039139;28;20052;-77
2021/05/13 00:30:43;;;;;;;5.32;2.10;;;;;;;17.26;45.59;98687.31;5038426;28;20458;-76
2021/05/13 00:33:10;;;;;;;3.10;1.98;;;;;;;17.33;45.43;98692.50;5057131;28;20020;-77
2021/05/13 00:35:36;;;;;;;4.97;2.47;;;;;;;17.29;45.91;98715.38;5057750;28;20025;-78
2021/05/13 00:38:01;;;;;;;3.28;2.33;;;;;;;17.11;45.89;98700.41;5057076;28;20157;-75
2021/05/13 00:40:27;;;;;;;2.95;2.20;;;;;;;16.94;46.12;98681.69;5059713;28;20090;-77
2021/05/13 00:42:52;;;;;;;2.40;2.00;;;;;;;17.25;46.07;98723.06;5059710;28;20036;-77
2021/05/13 00:45:20;;;;;;;4.05;2.10;;;;;;;17.29;45.91;98718.03;5057623;28;20027;-77
2021/05/13 00:50:20;;;;;;;3.22;2.03;;;;;;;17.16;45.99;98692.50;5056840;28;20033;-78
2021/05/13 00:52:46;;;;;;;4.40;2.33;;;;;;;16.61;45.72;98622.94;5038753;28;20031;-76
2021/05/13 00:55:14;;;;;;;2.67;2.00;;;;;;;17.27;45.78;98725.47;5056414;28;20052;-77
2021/05/13 00:57:43;;;;;;;4.30;2.25;;;;;;;16.61;46.07;98626.41;5056445;28;20071;-78
2021/05/13 01:00:31;;;;;;;3.35;1.83;;;;;;;17.12;46.24;98704.69;5056259;28;20025;-78
2021/05/13 01:02:56;;;;;;;2.85;2.00;;;;;;;17.24;46.01;98710.75;5055965;28;20029;-77
2021/05/13 01:05:22;;;;;;;3.38;2.10;;;;;;;17.14;46.03;98690.06;5056218;28;20023;-77
2021/05/13 01:07:48;;;;;;;5.68;1.80;;;;;;;17.31;45.85;98707.94;5056021;28;20021;-77
2021/05/13 01:10:14;;;;;;;3.13;2.20;;;;;;;17.39;45.66;98705.69;5038885;28;20029;-77
2021/05/13 01:12:40;;;;;;;3.53;2.13;;;;;;;17.03;45.52;98658.91;5060394;28;20025;-77
2021/05/13 01:15:51;;;;;;;3.13;2.10;;;;;;;17.01;46.51;98689.53;5057898;28;20051;-76
2021/05/13 01:18:20;;;;;;;2.63;2.10;;;;;;;17.03;46.12;98717.56;5051727;28;20102;-76
2021/05/13 01:20:47;;;;;;;2.70;2.10;;;;;;;17.20;46.15;98719.50;5055886;28;20027;-77
2021/05/13 01:23:14;;;;;;;3.08;2.30;;;;;;;17.26;46.17;98727.34;5038335;28;20021;-78
2021/05/13 01:25:50;;;;;;;3.20;2.05;;;;;;;16.68;46.33;98627.09;5055888;28;20025;-76
2021/05/13 01:28:16;;;;;;;4.13;2.35;;;;;;;16.86;46.03;98644.75;5055979;28;20028;-77
2021/05/13 01:30:44;;;;;;;2.33;2.13;;;;;;;17.30;46.14;98709.00;5055743;28;20078;-77
2021/05/13 01:33:11;;;;;;;4.22;2.40;;;;;;;17.35;45.80;98709.88;5055816;28;20032;-77
2021/05/13 01:35:37;;;;;;;4.80;2.55;;;;;;;17.07;45.79;98660.03;5055790;28;20021;-75
2021/05/13 01:38:04;;;;;;;4.30;2.65;;;;;;;17.32;45.91;98701.56;5055366;28;20446;-78
2021/05/13 01:40:30;;;;;;;6.13;2.33;;;;;;;17.32;46.29;98706.88;5055446;28;20074;-76
2021/05/13 01:42:55;;;;;;;3.65;2.92;;;;;;;16.98;46.14;98669.50;5037805;28;20111;-78
2021/05/13 01:45:21;;;;;;;4.07;2.88;;;;;;;16.71;46.14;98645.28;5055646;28;20029;-78
2021/05/13 01:47:46;;;;;;;4.75;2.63;;;;;;;16.89;46.33;98670.13;5055302;28;20104;-77
2021/05/13 01:50:12;;;;;;;3.50;2.40;;;;;;;17.07;46.31;98700.03;5055418;28;20427;-78
2021/05/13 01:52:37;;;;;;;4.53;2.13;;;;;;;17.22;46.04;98698.72;5055471;28;20056;-78
2021/05/13 01:55:03;;;;;;;4.03;2.60;;;;;;;17.26;46.35;98697.19;5055292;28;20025;-78
2021/05/13 01:57:28;;;;;;;3.38;2.20;;;;;;;16.82;46.38;98635.63;5037565;28;20335;-78
2021/05/13 01:59:53;;;;;;;4.88;2.83;;;;;;;16.80;46.39;98643.03;5055201;28;20067;-77
2021/05/13 02:02:21;;;;;;;4.85;2.70;;;;;;;17.07;46.36;98694.72;5037535;28;20031;-77
2021/05/13 02:04:47;;;;;;;5.80;3.10;;;;;;;16.98;46.57;98671.34;5054990;28;20390;-77
2021/05/13 02:07:13;;;;;;;4.38;2.58;;;;;;;16.55;46.58;98614.06;5037390;28;20017;-78
2021/05/13 02:09:38;;;;;;;6.13;3.00;;;;;;;16.76;46.42;98639.25;5055083;28;20108;-76
2021/05/13 02:12:04;;;;;;;2.83;2.50;;;;;;;17.15;46.39;98702.34;5054885;28;20056;-77
2021/05/13 02:14:30;;;;;;;4.85;2.80;;;;;;;17.22;46.55;98715.53;5037340;28;20052;-77
2021/05/13 02:16:56;;;;;;;5.82;2.83;;;;;;;16.59;46.66;98609.06;5054646;28;20056;-77
2021/05/13 02:19:21;;;;;;;5.95;2.78;;;;;;;16.71;46.15;98617.81;5054850;28;20495;-78
2021/05/13 02:21:47;;;;;;;4.50;3.00;;;;;;;16.60;46.02;98600.81;5054794;28;20028;-78
2021/05/13 02:24:12;;;;;;;5.03;3.05;;;;;;;16.52;46.31;98601.22;5037086;28;20021;-76
2021/05/13 02:26:37;;;;;;;3.70;2.65;;;;;;;17.23;46.52;98719.81;5054808;28;20024;-77
2021/05/13 02:29:03;;;;;;;7.40;3.30;;;;;;;17.00;46.59;98675.38;5054612;28;20095;-77
2021/05/13 02:31:28;;;;;;;6.75;3.30;;;;;;;17.22;46.56;98717.38;5037049;28;20013;-77
2021/05/13 02:33:54;;;;;;;4.35;3.30;;;;;;;16.92;46.59;98681.13;5054462;28;20454;-77
2021/05/13 02:36:19;;;;;;;5.95;3.28;;;;;;;16.64;46.58;98631.28;5054485;28;20029;-75
2021/05/13 02:38:45;;;;;;;6.35;3.17;;;;;;;16.94;46.35;98688.88;5054659;28;20514;-77
2021/05/13 02:41:10;;;;;;;6.88;3.30;;;;;;;16.96;46.87;98703.59;5054462;28;20100;-77
2021/05/13 02:43:35;;;;;;;4.78;3.25;;;;;;;16.74;46.75;98668.00;5054660;28;20031;-78
2021/05/13 02:46:01;;;;;;;8.35;3.67;;;;;;;16.96;46.93;98703.59;5054470;28;20099;-78
2021/05/13 02:48:26;;;;;;;3.88;3.38;;;;;;;16.82;46.96;98675.59;5054541;28;20021;-77
2021/05/13 02:50:52;;;;;;;6.15;3.50;;;;;;;17.09;46.72;98723.81;5054322;28;20450;-78
2021/05/13 02:53:17;;;;;;;5.25;3.38;;;;;;;16.76;47.43;98712.03;5053925;28;20071;-78
2021/05/13 02:55:42;;;;;;;4.35;3.08;;;;;;;16.72;47.36;98715.41;5054523;28;20017;-77
2021/05/13 02:58:08;;;;;;;5.53;3.40;;;;;;;16.83;47.55;98730.53;5056322;28;20098;-78
2021/05/13 03:00:37;;;;;;;8.10;3.63;;;;;;;16.70;47.39;98706.84;5056486;28;20024;-78
2021/05/13 03:03:02;;;;;;;4.38;3.60;;;;;;;16.82;47.77;98716.41;5036656;28;20025;-77
2021/05/13 03:05:28;;;;;;;7.05;3.65;;;;;;;16.95;47.56;98725.97;5036959;28;20033;-77
2021/05/13 03:08:01;;;;;;;4.35;3.92;;;;;;;16.63;47.75;98687.47;5054229;28;20017;-77
2021/05/13 03:10:35;;;;;;;5.68;4.32;;;;;;;16.81;47.54;98717.44;5054441;28;20032;-75
2021/05/13 03:13:01;;;;;;;6.60;4.05;;;;;;;16.90;48.03;98738.41;5036526;28;20029;-77
2021/05/13 03:15:28;;;;;;;11.38;4.72;;;;;;;16.81;47.96;98724.63;5036645;28;20055;-77
2021/05/13 03:17:53;;;;;;;5.70;4.88;;;;;;;16.99;47.86;98729.78;5053979;28;20335;-76
2021/05/13 03:20:23;;;;;;;10.82;5.47;;;;;;;17.06;48.28;98732.28;5054466;28;20029;-76
2021/05/13 03:22:53;;;;;;;7.45;4.43;;;;;;;16.84;48.24;98694.84;5036526;28;20032;-76
2021/05/13 03:25:25;;;;;;;6.22;4.85;;;;;;;16.95;48.34;98701.16;5054174;28;20439;-78
2021/05/13 03:27:54;;;;;;;8.13;4.25;;;;;;;16.45;48.27;98627.19;5054108;28;20017;-77
2021/05/13 03:30:24;;;;;;;5.85;4.00;;;;;;;17.08;47.98;98730.19;5054115;28;20082;-77
2021/05/13 03:32:49;;;;;;;8.93;4.70;;;;;;;16.86;47.92;98699.94;5053794;28;20032;-77
2021/05/13 03:35:15;;;;;;;4.80;4.38;;;;;;;17.02;47.88;98745.28;5054071;28;20029;-77
2021/05/13 03:37:40;;;;;;;11.43;4.72;;;;;;;17.01;48.31;98738.34;5053989;28;20028;-76
2021/05/13 03:40:07;;;;;;;5.95;4.97;;;;;;;16.78;48.19;98739.25;5053940;28;20058;-77
2021/05/13 03:42:32;;;;;;;6.88;4.80;;;;;;;16.17;48.57;98673.22;5054068;28;20359;-76
2021/05/13 03:44:57;;;;;;;6.43;4.28;;;;;;;16.25;48.36;98688.84;5053883;28;20025;-77
2021/05/13 03:47:23;;;;;;;6.85;4.20;;;;;;;16.09;48.27;98663.75;5053850;28;20028;-78
2021/05/13 03:49:50;;;;;;;6.18;3.63;;;;;;;15.99;48.45;98646.75;5036171;28;20045;-77
2021/05/13 03:52:15;;;;;;;6.40;3.53;;;;;;;16.56;48.12;98730.25;5053963;28;20021;-76
2021/05/13 03:54:40;;;;;;;8.48;4.22;;;;;;;16.51;48.19;98714.16;5036231;28;20024;-77
2021/05/13 03:57:06;;;;;;;6.15;3.75;;;;;;;16.63;48.42;98740.78;5053663;28;20028;-77
2021/05/13 03:59:37;;;;;;;6.63;3.90;;;;;;;16.58;48.30;98740.69;5053955;28;20108;-77
2021/05/13 04:04:28;;;;;;;4.68;3.55;;;;;;;16.52;48.36;98732.59;5054715;28;20021;-75
2021/05/13 04:06:53;;;;;;;4.70;3.42;;;;;;;16.07;48.43;98697.00;5057272;28;20040;-77
2021/05/13 04:09:19;;;;;;;8.20;3.90;;;;;;;15.81;48.48;98661.84;5057435;28;20025;-77
2021/05/13 04:11:44;;;;;;;5.25;3.38;;;;;;;16.32;48.25;98740.13;5057319;28;20032;-78
2021/05/13 04:14:10;;;;;;;5.22;4.47;;;;;;;16.49;48.06;98756.22;5057175;28;20035;-75
2021/05/13 04:16:38;;;;;;;5.22;4.60;;;;;;;16.56;48.30;98764.09;5057353;28;20016;-76
2021/05/13 04:19:04;;;;;;;8.20;3.80;;;;;;;16.58;47.93;98762.00;5057085;28;20056;-76
2021/05/13 04:21:30;;;;;;;3.53;3.22;;;;;;;16.65;47.67;98762.69;5057490;28;20482;-77
2021/05/13 04:23:56;;;;;;;7.45;3.20;;;;;;;16.43;47.47;98719.88;5056987;28;20037;-78
2021/05/13 04:26:22;;;;;;;6.68;3.85;;;;;;;16.72;47.32;98764.19;5039269;28;20028;-78
2021/05/13 04:28:48;;;;;;;7.50;3.90;;;;;;;16.91;47.20;98764.00;5039270;28;20029;-77
2021/05/13 04:31:14;;;;;;;4.80;3.35;;;;;;;16.28;47.44;98688.38;5056921;28;20021;-77
2021/05/13 04:33:39;;;;;;;5.45;3.20;;;;;;;16.77;47.46;98766.97;5056737;28;20036;-77
2021/05/13 04:36:05;;;;;;;4.30;3.22;;;;;;;16.36;47.17;98713.88;5038886;28;20100;-77
2021/05/13 04:38:30;;;;;;;4.60;3.78;;;;;;;16.56;47.30;98748.09;5056898;28;20130;-76
2021/05/13 04:40:56;;;;;;;8.85;3.67;;;;;;;16.80;47.20;98777.16;5056725;28;20158;-77
2021/05/13 04:43:22;;;;;;;6.53;3.97;;;;;;;16.44;47.44;98738.28;5057278;28;20032;-77
2021/05/13 04:45:49;;;;;;;4.88;3.53;;;;;;;16.68;46.95;98757.72;5060376;28;20032;-77
2021/05/13 04:48:18;;;;;;;4.00;3.53;;;;;;;16.76;46.89;98757.34;5056384;28;20025;-77
2021/05/13 04:50:43;;;;;;;5.93;3.75;;;;;;;16.98;46.56;98778.00;5038714;28;20392;-77
2021/05/13 04:53:11;;;;;;;6.47;3.75;;;;;;;16.83;46.86;98747.34;5038566;28;20060;-76
2021/05/13 04:55:39;;;;;;;11.20;4.65;;;;;;;16.83;46.67;98770.53;5056407;28;20021;-78
2021/05/13 04:58:07;;;;;;;8.45;4.35;;;;;;;16.86;47.19;98777.25;5056077;28;20355;-77
2021/05/13 05:00:33;;;;;;;5.32;3.97;;;;;;;16.41;46.92;98701.47;5056318;28;20048;-77
2021/05/13 05:02:59;;;;;;;8.10;4.07;;;;;;;16.95;46.91;98771.28;5056381;28;20335;-77
2021/05/13 05:05:25;;;;;;;6.03;3.78;;;;;;;17.01;46.40;98774.88;5038480;28;20039;-77
2021/05/13 05:07:52;;;;;;;5.78;4.60;;;;;;;16.74;46.49;98705.31;5056152;28;20013;-77
2021/05/13 05:10:17;;;;;;;6.20;4.40;;;;;;;17.14;46.84;98786.09;5056259;28;20024;-77
2021/05/13 05:12:43;;;;;;;7.60;4.85;;;;;;;16.76;46.87;98725.34;5056064;28;20029;-77
2021/05/13 05:15:09;;;;;;;6.13;4.07;;;;;;;17.19;46.58;98768.56;5055511;28;20023;-77
2021/05/13 05:17:35;;;;;;;5.45;4.28;;;;;;;17.29;46.46;98793.56;5055733;28;20028;-76
2021/05/13 05:20:00;;;;;;;7.43;5.00;;;;;;;17.34;46.62;98774.16;5055848;28;20094;-77
2021/05/13 05:22:25;;;;;;;6.30;5.47;;;;;;;17.03;46.83;98732.78;5055954;28;20021;-76
2021/05/13 05:24:51;;;;;;;8.00;4.65;;;;;;;17.38;46.80;98781.44;5055845;28;20025;-76
2021/05/13 05:27:16;;;;;;;6.60;4.15;;;;;;;17.47;46.59;98785.34;5038588;28;20032;-76
2021/05/13 05:29:42;;;;;;;5.35;4.28;;;;;;;17.07;46.44;98723.25;5056108;28;20051;-78
2021/05/13 05:32:07;;;;;;;7.05;4.60;;;;;;;17.51;46.25;98782.19;5038077;28;20025;-77
2021/05/13 05:34:33;;;;;;;7.25;4.90;;;;;;;16.83;46.35;98666.56;5055086;28;20043;-77
2021/05/13 05:36:58;;;;;;;10.60;5.55;;;;;;;17.27;46.65;98749.50;5049924;28;20358;-78
2021/05/13 05:39:24;;;;;;;5.78;5.05;;;;;;;17.41;46.89;98767.63;5051089;28;20052;-78
2021/05/13 05:41:52;;;;;;;6.40;4.25;;;;;;;17.36;46.54;98740.03;5049146;28;20029;-75
2021/05/13 05:44:18;;;;;;;8.20;5.38;;;;;;;17.54;46.61;98779.84;5047057;28;20107;-78
2021/05/13 05:46:43;;;;;;;7.35;5.22;;;;;;;17.81;46.16;98788.03;5053688;28;20397;-76
2021/05/13 05:49:09;;;;;;;6.53;5.20;;;;;;;17.37;46.19;98726.47;5054526;28;20024;-77
2021/05/13 05:51:34;;;;;;;11.63;5.53;;;;;;;17.70;46.13;98760.38;5055132;28;20498;-77
2021/05/13 05:54:00;;;;;;;10.10;5.53;;;;;;;17.96;45.99;98795.53;5053482;28;20090;-77
2021/05/13 05:56:25;;;;;;;6.43;5.68;;;;;;;17.91;46.47;98803.44;5044436;28;20112;-77
2021/05/13 05:58:50;;;;;;;7.40;5.20;;;;;;;17.77;46.48;98784.25;5029488;28;20432;-74
2021/05/13 06:01:16;;;;;;;6.68;5.40;;;;;;;17.51;46.38;98745.63;5054351;28;20037;-75
2021/05/13 06:03:42;;;;;;;7.43;5.72;;;;;;;17.76;46.36;98782.63;5054719;28;20033;-76
2021/05/13 06:06:07;;;;;;;9.15;5.18;;;;;;;17.82;46.38;98799.53;5036719;28;20082;-76
2021/05/13 06:08:33;;;;;;;9.48;5.72;;;;;;;17.95;46.51;98815.25;5037151;28;20028;-76
2021/05/13 06:10:58;;;;;;;7.80;5.63;;;;;;;17.89;46.54;98806.38;5054742;28;20025;-77
2021/05/13 06:13:23;;;;;;;9.32;5.70;;;;;;;17.88;46.33;98803.94;5037240;28;20025;-78
2021/05/13 06:15:49;;;;;;;8.95;6.13;;;;;;;17.67;46.55;98755.53;5050905;28;20027;-77
2021/05/13 06:18:14;;;;;;;7.85;5.88;;;;;;;18.04;46.09;98797.78;5034478;28;20481;-77
2021/05/13 06:20:40;;;;;;;9.75;5.93;;;;;;;17.92;45.97;98767.69;5050490;28;20044;-76
2021/05/13 06:23:07;;;;;;;11.38;6.65;;;;;;;18.17;45.94;98784.06;5036541;28;20029;-78
2021/05/13 06:25:33;;;;;;;10.93;6.82;;;;;;;18.34;45.84;98790.19;5051017;28;20067;-78
2021/05/13 06:27:59;;;;;;;10.45;6.60;;;;;;;18.41;45.70;98779.31;5047449;28;21754;-77
2021/05/13 06:30:24;;;;;;;9.93;6.88;;;;;;;18.43;45.62;98774.53;5035597;28;20359;-77
2021/05/13 06:32:50;;;;;;;7.45;6.70;;;;;;;18.47;45.54;98761.50;5056142;28;20035;-80
2021/05/13 06:35:17;;;;;;;12.68;6.22;;;;;;;18.61;45.08;98760.09;5034616;28;20428;-77
2021/05/13 06:37:43;;;;;;;8.75;6.70;;;;;;;18.62;45.00;98735.81;5054266;28;20231;-77
2021/05/13 06:40:09;;;;;;;12.73;7.57;;;;;;;19.16;44.22;98794.72;5051262;28;20487;-79
2021/05/13 06:42:35;;;;;;;10.43;7.00;;;;;;;18.48;44.27;98688.25;5054209;28;20025;-77
2021/05/13 06:45:01;;;;;;;9.25;7.30;;;;;;;19.18;43.86;98789.91;5051018;28;20021;-75
2021/05/13 06:47:26;;;;;;;14.75;7.55;;;;;;;19.19;43.56;98794.19;5036769;28;20025;-77
2021/05/13 06:49:51;;;;;;;11.60;7.55;;;;;;;18.79;43.55;98726.91;5051288;28;20038;-77
2021/05/13 06:52:17;;;;;;;10.18;7.10;;;;;;;19.01;43.41;98776.63;5053799;28;20036;-77
2021/05/13 06:54:45;;;;;;;11.07;6.47;;;;;;;19.17;43.07;98792.84;5051933;28;20087;-77
2021/05/13 06:57:10;;;;;;;8.98;6.50;;;;;;;19.13;42.85;98775.66;5053563;28;20021;-77
2021/05/13 06:59:38;;;;;;;8.73;6.30;;;;;;;19.31;42.66;98794.06;5053619;28;20036;-77
2021/05/13 07:02:04;;;;;;;16.10;7.15;;;;;;;19.18;42.37;98755.13;5052176;28;20033;-79
2021/05/13 07:04:31;;;;;;;12.75;6.93;;;;;;;19.45;41.97;98773.06;5051935;28;20040;-78
2021/05/13 07:06:56;;;;;;;10.38;7.18;;;;;;;19.00;41.75;98702.78;5053043;28;20060;-78
2021/05/13 07:09:22;;;;;;;12.38;7.50;;;;;;;18.96;41.79;98701.66;5034909;28;20040;-77
2021/05/13 07:11:47;;;;;;;9.02;6.43;;;;;;;19.00;41.66;98724.19;5034915;28;20025;-78
2021/05/13 07:14:13;;;;;;;16.27;6.68;;;;;;;19.07;41.92;98723.97;5052475;28;20029;-79
2021/05/13 07:16:38;;;;;;;15.27;7.07;;;;;;;19.37;42.07;98768.97;5035982;28;20041;-78
2021/05/13 07:19:04;;;;;;;10.75;6.82;;;;;;;19.48;42.07;98777.91;5034375;28;20491;-76
2021/05/13 07:21:30;;;;;;;10.90;6.75;;;;;;;19.52;41.65;98746.88;5053610;28;20060;-78
2021/05/13 07:23:55;;;;;;;9.27;6.38;;;;;;;19.67;41.85;98753.19;5036103;28;20056;-75
2021/05/13 07:26:22;;;;;;;10.43;6.38;;;;;;;19.95;41.33;98762.78;5052046;28;20025;-77
2021/05/13 07:28:48;;;;;;;10.70;7.60;;;;;;;20.09;40.98;98754.31;5035927;28;20021;-79
2021/05/13 07:31:13;;;;;;;12.77;7.97;;;;;;;19.78;40.74;98705.88;5051909;28;20040;-79
2021/05/13 07:33:39;;;;;;;10.30;7.03;;;;;;;19.89;40.85;98722.81;5052185;28;20025;-77
2021/05/13 07:36:11;;;;;;;13.85;7.40;;;;;;;20.12;40.50;98741.19;5052818;28;20022;-76
2021/05/13 07:38:37;;;;;;;7.45;6.35;;;;;;;20.28;40.41;98763.53;5034043;28;20123;-78
2021/05/13 07:41:06;;;;;;;14.48;6.38;;;;;;;20.44;40.30;98756.41;5053516;28;20036;-78
2021/05/13 07:43:33;;;;;;;13.30;7.28;;;;;;;20.50;40.23;98763.41;5035008;28;20033;-77
2021/05/13 07:46:10;;;;;;;12.88;6.97;;;;;;;20.62;40.19;98759.44;5040636;28;20044;-76
2021/05/13 07:48:38;;;;;;;10.40;7.47;;;;;;;20.19;40.14;98688.16;5039145;28;20041;-77
2021/05/13 07:51:04;;;;;;;10.60;7.53;;;;;;;20.17;39.98;98692.19;5038509;28;20032;-79
2021/05/13 07:53:30;;;;;;;11.40;7.13;;;;;;;20.83;39.81;98746.91;5057180;28;20091;-79
2021/05/13 07:55:56;;;;;;;7.35;6.65;;;;;;;21.14;39.28;98768.47;5056737;28;20024;-79
2021/05/13 07:58:22;;;;;;;11.07;7.32;;;;;;;21.17;39.67;98763.38;5056302;28;20037;-75
2021/05/13 08:00:48;;;;;;;8.30;6.63;;;;;;;21.00;39.57;98745.88;5055241;28;20398;-80
2021/05/13 08:03:13;;;;;;;11.07;6.88;;;;;;;20.71;39.45;98706.09;5041613;28;20351;-80
2021/05/13 08:05:39;;;;;;;12.05;6.63;;;;;;;21.09;39.40;98761.22;5038672;28;20021;-80
2021/05/13 08:08:05;;;;;;;11.43;7.53;;;;;;;20.66;39.33;98691.84;5058029;28;20045;-76
2021/05/13 08:10:30;;;;;;;9.80;6.80;;;;;;;20.70;39.55;98691.06;5030505;28;20029;-78
2021/05/13 08:12:56;;;;;;;10.95;6.45;;;;;;;21.09;39.28;98723.63;5055599;28;20051;-76
2021/05/13 08:15:21;;;;;;;9.57;6.22;;;;;;;21.45;39.22;98748.66;5060880;28;20036;-76
2021/05/13 08:17:47;;;;;;;10.63;6.95;;;;;;;21.48;38.89;98755.38;5056656;28;20029;-76
2021/05/13 08:20:14;;;;;;;13.77;7.85;;;;;;;21.12;38.93;98693.56;5054342;28;20485;-76
2021/05/13 08:22:44;;;;;;;8.23;6.82;;;;;;;21.65;38.71;98749.75;5055303;28;20102;-79
2021/05/13 08:25:11;;;;;;;8.57;6.18;;;;;;;21.55;38.70;98700.34;5038054;28;20388;-78
2021/05/13 08:27:38;;;;;;;11.65;6.68;;;;;;;21.94;38.82;98744.63;5053255;28;20021;-78
2021/05/13 08:30:05;;;;;;;8.63;6.25;;;;;;;22.04;38.17;98729.31;5055641;28;20048;-81
2021/05/13 08:32:32;;;;;;;8.18;5.88;;;;;;;22.23;37.99;98742.16;5055050;28;20070;-78
2021/05/13 08:34:57;;;;;;;7.70;5.65;;;;;;;21.87;37.80;98673.16;5054202;28;20037;-77
2021/05/13 08:37:22;;;;;;;9.48;5.70;;;;;;;22.45;37.87;98746.16;5054383;28;20029;-78
2021/05/13 08:39:49;;;;;;;7.88;6.07;;;;;;;22.55;37.73;98739.94;5054981;28;20029;-78
2021/05/13 08:42:14;;;;;;;13.27;8.65;;;;;;;22.27;37.88;98690.25;5036885;28;20111;-78
2021/05/13 08:44:44;;;;;;;9.80;6.57;;;;;;;22.53;37.67;98715.19;5055616;28;20107;-75
2021/05/13 08:47:10;;;;;;;11.55;7.40;;;;;;;22.43;37.27;98691.84;5053539;28;20032;-80
2021/05/13 08:49:36;;;;;;;7.30;6.07;;;;;;;22.68;37.64;98722.38;5054721;28;20032;-80
2021/05/13 08:52:07;;;;;;;10.20;6.05;;;;;;;22.96;37.38;98751.34;5054381;28;20106;-80
2021/05/13 08:54:32;;;;;;;10.00;5.30;;;;;;;22.74;36.96;98695.16;5054418;28;20509;-80
2021/05/13 08:56:57;;;;;;;6.82;4.60;;;;;;;22.74;36.66;98679.03;5035573;28;20037;-79
2021/05/13 08:59:23;;;;;;;6.85;5.18;;;;;;;23.19;36.47;98731.03;5038399;28;20086;-79
2021/05/13 09:01:59;;;;;;;9.02;4.93;;;;;;;23.34;36.27;98728.22;5055295;28;20417;-79
2021/05/13 09:04:37;;;;;;;9.63;4.75;;;;;;;23.40;36.05;98719.00;5055994;28;20036;-79
2021/05/13 09:07:21;;;;;;;8.73;4.65;;;;;;;23.60;35.98;98719.94;5055043;28;20025;-79
2021/05/13 09:09:56;;;;;;;8.95;4.20;;;;;;;23.81;35.87;98713.31;5035070;28;20063;-80
2021/05/13 09:12:36;;;;;;;8.52;4.10;;;;;;;23.89;35.63;98677.66;5024037;28;20090;-77
2021/05/13 09:15:23;;;;;;;6.40;4.38;;;;;;;24.08;35.29;98654.25;5055584;28;20025;-79
2021/05/13 09:18:01;;;;;;;9.45;5.30;;;;;;;24.29;34.56;98665.63;5055049;28;20040;-79
2021/05/13 09:20:29;;;;;;;9.25;4.28;;;;;;;24.57;34.40;98701.72;5037519;28;20435;-78
2021/05/13 09:23:17;;;;;;;8.48;5.13;;;;;;;24.70;33.92;98702.88;5037955;28;20359;-79
2021/05/13 09:25:44;;;;;;;8.85;4.88;;;;;;;24.50;34.33;98641.88;5054672;28;20035;-79
2021/05/13 09:28:10;;;;;;;8.77;4.90;;;;;;;24.73;34.11;98642.13;5053902;28;20049;-78
2021/05/13 09:30:36;;;;;;;10.05;5.03;;;;;;;25.10;33.83;98665.63;5037169;28;20037;-77
2021/05/13 09:33:04;;;;;;;9.35;4.00;;;;;;;25.50;33.33;98699.31;5053546;28;20534;-77
2021/05/13 09:35:35;;;;;;;6.70;4.72;;;;;;;25.39;32.91;98685.16;5053616;28;20041;-78
2021/05/13 09:38:03;;;;;;;6.45;4.75;;;;;;;25.51;32.92;98700.91;5036249;28;20320;-77
2021/05/13 09:40:34;;;;;;;7.43;4.47;;;;;;;25.61;32.70;98698.03;5053815;28;20083;-80
2021/05/13 09:43:11;;;;;;;7.47;3.50;;;;;;;25.75;32.60;98695.38;5037655;28;20028;-79
2021/05/13 09:45:42;;;;;;;7.32;4.00;;;;;;;25.94;32.42;98690.69;5054588;28;20041;-80
2021/05/13 09:48:07;;;;;;;;;;;;;;;25.91;32.40;98694.81;5054472;28;20032;-78
2021/05/13 09:50:33;;;;;;;6.50;4.00;;;;;;;26.03;32.49;98672.69;5055202;28;19909;-80
2021/05/13 09:53:00;;;;;;;7.13;4.10;;;;;;;26.19;32.12;98656.97;5058190;28;20052;-78
2021/05/13 09:55:35;;;;;;;7.13;4.10;;;;;;;26.45;31.96;98651.84;5060810;28;20029;-77
2021/05/13 09:58:09;;;;;;;3.97;3.00;;;;;;;26.89;30.24;98689.06;5036563;28;20111;-80
2021/05/13 10:00:48;;;;;;;4.95;2.67;;;;;;;26.35;30.58;98595.22;5037187;28;20044;-78
2021/05/13 10:03:19;;;;;;;4.75;2.75;;;;;;;26.95;30.77;98679.72;5054853;28;20498;-79
2021/05/13 10:05:53;;;;;;;3.50;2.78;;;;;;;27.02;30.09;98682.84;5035166;28;20044;-79
2021/05/13 10:08:19;;;;;;;7.13;3.70;;;;;;;26.94;30.65;98661.06;5053291;28;20041;-80
2021/05/13 10:10:45;;;;;;;6.45;4.55;;;;;;;27.02;30.41;98641.41;5038776;28;20063;-79
2021/05/13 10:13:12;;;;;;;11.82;9.25;;;;;;;27.45;30.43;98666.88;5055736;28;20343;-77
2021/05/13 10:15:41;;;;;;;6.15;4.32;;;;;;;27.32;30.26;98646.06;5036395;28;20033;-78
2021/05/13 10:18:40;;;;;;;10.00;4.03;;;;;;;27.50;30.08;98663.25;5054234;28;20406;-78
2021/05/13 10:21:22;;;;;;;6.88;3.38;;;;;;;27.51;30.02;98667.56;5050815;28;20029;-79
2021/05/13 10:23:50;;;;;;;5.40;3.30;;;;;;;27.54;29.73;98659.63;5028836;28;20024;-80
2021/05/13 10:26:35;;;;;;;4.22;3.25;;;;;;;27.62;29.77;98655.38;5034108;28;20036;-79
2021/05/13 10:29:24;;;;;;;6.97;3.05;;;;;;;27.82;29.39;98654.03;5050215;28;20025;-78
2021/05/13 10:32:14;;;;;;;5.82;3.33;;;;;;;28.00;29.24;98644.03;5050996;28;20403;-79
2021/05/13 10:34:54;;;;;;;3.85;2.92;;;;;;;27.72;28.94;98567.50;5028730;28;20120;-79
2021/05/13 10:37:37;;;;;;;4.43;3.38;;;;;;;28.32;28.41;98613.84;5034530;28;20041;-78
2021/05/13 10:40:12;;;;;;;4.65;3.45;;;;;;;28.67;28.04;98630.16;5027681;28;20329;-77
2021/05/13 10:42:38;;;;;;;5.68;3.00;;;;;;;28.60;27.92;98608.91;5034229;28;20028;-80
2021/05/13 10:45:23;;;;;;;5.70;2.88;;;;;;;28.97;27.92;98623.00;5054146;28;20036;-80
2021/05/13 10:48:20;;;;;;;4.57;2.60;;;;;;;28.96;27.51;98619.47;5033183;28;20036;-76
2021/05/13 10:50:47;;;;;;;4.47;2.95;;;;;;;29.04;27.84;98615.19;5046238;28;20497;-80
2021/05/13 10:53:47;;;;;;;6.30;4.30;;;;;;;29.25;27.35;98618.81;5054121;28;20346;-80
2021/05/13 10:56:24;;;;;;;5.43;2.90;;;;;;;29.32;27.40;98607.44;5049144;28;20036;-80
2021/05/13 10:59:05;;;;;;;5.95;3.58;;;;;;;29.48;27.45;98605.84;5047915;28;20101;-77
2021/05/13 11:01:51;;;;;;;5.45;3.97;;;;;;;29.39;27.45;98613.19;5052288;28;20033;-81
2021/05/13 11:04:27;;;;;;;3.92;2.50;;;;;;;29.37;27.24;98610.78;5033772;28;20431;-80
2021/05/13 11:07:24;;;;;;;7.32;2.63;;;;;;;29.30;27.42;98609.69;5031587;28;20340;-79
2021/05/13 11:09:50;;;;;;;9.07;4.07;;;;;;;29.36;27.01;98603.75;5035321;28;20100;-80
2021/05/13 11:12:22;;;;;;;7.63;3.80;;;;;;;29.55;26.74;98597.97;5033158;28;20052;-80
2021/05/13 11:17:40;;;;;;;8.60;5.13;;;;;;;29.53;26.74;98602.13;5058507;28;20163;-80
2021/05/13 11:20:31;;;;;;;9.25;8.10;;;;;;;29.56;26.56;98596.03;5057515;28;20036;-79
2021/05/13 11:22:57;;;;;;;5.73;4.63;;;;;;;29.65;26.72;98592.16;5051141;28;20104;-78
2021/05/13 11:25:46;;;;;;;5.40;3.63;;;;;;;29.77;26.00;98586.06;5052684;28;20021;-79
2021/05/13 11:28:29;;;;;;;4.35;2.60;;;;;;;30.03;25.89;98583.22;5053961;28;20028;-80
2021/05/13 11:31:06;;;;;;;5.68;4.25;;;;;;;30.14;25.95;98583.63;5056108;28;20070;-80
2021/05/13 11:33:44;;;;;;;5.13;3.15;;;;;;;30.19;25.93;98578.81;5062356;28;20049;-75
2021/05/13 11:36:12;;;;;;;14.48;9.98;;;;;;;30.31;25.99;98567.97;5060862;28;20071;-77
2021/05/13 11:38:38;;;;;;;11.27;8.48;;;;;;;30.12;25.93;98521.34;5057746;28;20033;-78
2021/05/13 11:41:05;;;;;;;11.05;7.05;;;;;;;30.47;25.83;98565.47;5055564;28;20109;-78
2021/05/13 11:43:35;;;;;;;10.15;4.88;;;;;;;30.12;25.73;98490.59;5057353;28;20104;-78
2021/05/13 11:46:11;;;;;;;9.82;7.13;;;;;;;30.74;25.37;98555.97;5039235;28;20136;-75